createdAt,value
2017-08-25T00:02:06.651Z,16.90
2017-08-25T00:04:34.836Z,16.90
2017-08-25T00:07:02.418Z,16.80
2017-08-25T00:09:30.206Z,16.80
2017-08-25T00:11:58.861Z,16.70
2017-08-25T00:14:26.374Z,16.70
2017-08-25T00:16:53.879Z,16.80
2017-08-25T00:19:21.438Z,16.80
2017-08-25T00:21:48.938Z,16.80
2017-08-25T00:24:16.468Z,16.80
2017-08-25T00:26:44.078Z,16.90
2017-08-25T00:29:11.578Z,16.80
2017-08-25T00:31:39.414Z,16.80
2017-08-25T00:34:06.986Z,16.70
2017-08-25T00:36:35.068Z,16.70
2017-08-25T00:39:02.613Z,16.70
2017-08-25T00:41:30.167Z,16.70
2017-08-25T00:43:57.674Z,16.70
2017-08-25T00:46:25.705Z,16.80
2017-08-25T00:48:53.213Z,16.70
2017-08-25T00:51:20.719Z,16.60
2017-08-25T00:53:48.382Z,16.50
2017-08-25T00:56:15.889Z,16.40
2017-08-25T00:58:43.427Z,16.40
2017-08-25T01:01:11.336Z,16.40
2017-08-25T01:03:38.853Z,16.50
2017-08-25T01:06:06.358Z,16.80
2017-08-25T01:08:34.122Z,16.90
2017-08-25T01:11:01.747Z,16.90
2017-08-25T01:13:29.548Z,16.80
2017-08-25T01:15:57.721Z,16.60
2017-08-25T01:18:25.391Z,16.70
2017-08-25T01:20:52.910Z,16.90
2017-08-25T01:23:20.762Z,17.00
2017-08-25T01:25:48.324Z,16.90
2017-08-25T01:28:15.839Z,16.70
2017-08-25T01:30:43.379Z,16.80
2017-08-25T01:33:10.894Z,16.80
2017-08-25T01:35:38.419Z,16.80
2017-08-25T01:38:05.986Z,16.80
2017-08-25T01:40:33.592Z,16.90
2017-08-25T01:43:01.152Z,17.00
2017-08-25T01:45:29.656Z,17.00
2017-08-25T01:47:57.159Z,17.00
2017-08-25T01:50:24.654Z,16.90
2017-08-25T01:52:52.250Z,16.90
2017-08-25T01:55:19.770Z,16.90
2017-08-25T01:57:47.322Z,16.90
2017-08-25T02:00:15.173Z,17.00
2017-08-25T02:02:42.693Z,17.00
2017-08-25T02:05:10.196Z,17.00
2017-08-25T02:07:37.756Z,16.80
2017-08-25T02:10:05.261Z,16.80
2017-08-25T02:12:32.767Z,16.90
2017-08-25T02:15:00.740Z,17.00
2017-08-25T02:17:28.243Z,16.90
2017-08-25T02:19:55.747Z,17.00
2017-08-25T02:22:23.334Z,16.90
2017-08-25T02:24:51.381Z,16.80
2017-08-25T02:27:18.894Z,16.90
2017-08-25T02:29:46.855Z,16.90
2017-08-25T02:32:14.391Z,17.00
2017-08-25T02:34:42.040Z,17.00
2017-08-25T02:37:10.059Z,17.00
2017-08-25T02:39:37.956Z,17.00
2017-08-25T02:42:05.552Z,17.00
2017-08-25T02:44:33.332Z,16.90
2017-08-25T02:47:01.136Z,16.80
2017-08-25T02:49:28.643Z,16.80
2017-08-25T02:51:56.436Z,16.70
2017-08-25T02:54:23.938Z,16.60
2017-08-25T02:56:51.450Z,16.50
2017-08-25T02:59:19.807Z,16.50
2017-08-25T03:01:47.351Z,16.50
2017-08-25T03:04:15.019Z,16.70
2017-08-25T03:06:42.819Z,16.70
2017-08-25T03:09:10.327Z,16.70
2017-08-25T03:11:37.862Z,16.70
2017-08-25T03:14:05.650Z,16.70
2017-08-25T03:16:33.155Z,16.60
2017-08-25T03:19:00.667Z,16.60
2017-08-25T03:21:28.446Z,16.70
2017-08-25T03:23:55.946Z,17.00
2017-08-25T03:26:23.550Z,17.00
2017-08-25T03:28:51.110Z,17.00
2017-08-25T03:31:18.615Z,16.80
2017-08-25T03:33:46.207Z,16.70
2017-08-25T03:36:13.919Z,16.50
2017-08-25T03:38:41.434Z,16.50
2017-08-25T03:41:08.986Z,16.40
2017-08-25T03:43:36.558Z,16.30
2017-08-25T03:46:04.371Z,16.30
2017-08-25T03:48:31.923Z,16.20
2017-08-25T03:50:59.495Z,16.20
2017-08-25T03:53:27.027Z,16.00
2017-08-25T03:55:55.595Z,15.90
2017-08-25T03:58:23.143Z,15.90
2017-08-25T04:00:50.677Z,15.90
2017-08-25T04:03:18.237Z,15.80
2017-08-25T04:05:45.778Z,15.60
2017-08-25T04:08:13.315Z,15.60
2017-08-25T04:10:40.888Z,15.70
2017-08-25T04:13:09.180Z,15.80
2017-08-25T04:15:37.139Z,15.80
2017-08-25T04:18:06.183Z,15.70
2017-08-25T04:20:33.698Z,15.80
2017-08-25T04:23:01.223Z,15.80
2017-08-25T04:25:28.798Z,15.80
2017-08-25T04:27:56.317Z,15.60
2017-08-25T04:30:24.811Z,15.50
2017-08-25T04:32:52.591Z,15.40
2017-08-25T04:35:20.090Z,15.40
2017-08-25T04:37:47.642Z,15.50
2017-08-25T04:40:15.247Z,15.50
2017-08-25T04:42:42.799Z,15.50
2017-08-25T04:45:10.458Z,15.40
2017-08-25T04:47:37.517Z,15.50
2017-08-25T04:50:05.027Z,15.50
2017-08-25T04:52:32.567Z,15.70
2017-08-25T04:55:00.206Z,15.90
2017-08-25T04:57:27.706Z,16.10
2017-08-25T04:59:55.210Z,16.40
2017-08-25T05:02:23.199Z,16.60
2017-08-25T05:04:51.507Z,17.30
2017-08-25T05:07:19.770Z,17.40
2017-08-25T05:09:47.454Z,17.40
2017-08-25T05:12:14.955Z,17.40
2017-08-25T05:14:42.459Z,17.20
2017-08-25T05:17:10.051Z,17.20
2017-08-25T05:19:37.569Z,17.50
2017-08-25T05:22:05.067Z,17.70
2017-08-25T05:24:32.635Z,17.80
2017-08-25T05:27:00.228Z,17.90
2017-08-25T05:29:27.741Z,17.90
2017-08-25T05:31:55.047Z,17.90
2017-08-25T05:34:22.588Z,18.10
2017-08-25T05:36:50.603Z,18.10
2017-08-25T05:39:17.934Z,18.20
2017-08-25T05:41:45.519Z,18.20
2017-08-25T05:44:13.054Z,18.20
2017-08-25T05:46:40.623Z,18.40
2017-08-25T05:49:08.815Z,18.40
2017-08-25T05:51:36.321Z,18.50
2017-08-25T05:54:03.855Z,18.60
2017-08-25T05:56:31.363Z,18.70
2017-08-25T05:58:58.942Z,18.80
2017-08-25T06:01:26.507Z,18.90
2017-08-25T06:03:54.122Z,19.10
2017-08-25T06:06:21.668Z,19.20
2017-08-25T06:08:49.174Z,19.40
2017-08-25T06:11:16.759Z,19.60
2017-08-25T06:13:44.314Z,19.80
2017-08-25T06:16:11.815Z,20.30
2017-08-25T06:18:39.690Z,20.90
2017-08-25T06:21:07.187Z,21.00
2017-08-25T06:23:34.687Z,20.70
2017-08-25T06:26:02.542Z,20.50
2017-08-25T06:28:30.078Z,20.50
2017-08-25T06:30:57.709Z,21.00
2017-08-25T06:33:25.271Z,21.70
2017-08-25T06:35:52.780Z,22.00
2017-08-25T06:38:21.390Z,22.40
2017-08-25T06:40:49.084Z,22.80
2017-08-25T06:43:16.676Z,23.20
2017-08-25T06:45:44.176Z,23.50
2017-08-25T06:48:11.752Z,23.50
2017-08-25T06:50:39.272Z,23.90
2017-08-25T06:53:06.818Z,23.70
2017-08-25T06:55:34.671Z,24.10
2017-08-25T06:58:02.258Z,24.50
2017-08-25T07:00:29.758Z,24.60
2017-08-25T07:02:57.828Z,25.10
2017-08-25T07:05:25.331Z,25.70
2017-08-25T07:07:52.838Z,25.80
2017-08-25T07:10:20.694Z,25.90
2017-08-25T07:12:48.203Z,26.30
2017-08-25T07:15:16.115Z,25.80
2017-08-25T07:17:44.862Z,26.20
2017-08-25T07:20:13.427Z,26.50
2017-08-25T07:22:41.034Z,26.50
2017-08-25T07:25:08.583Z,26.80
2017-08-25T07:27:36.141Z,27.00
2017-08-25T07:30:03.678Z,27.30
2017-08-25T07:32:31.214Z,27.20
2017-08-25T07:34:58.719Z,27.60
2017-08-25T07:37:26.443Z,27.50
2017-08-25T07:39:53.966Z,27.90
2017-08-25T07:42:21.859Z,28.10
2017-08-25T07:44:49.467Z,28.50
2017-08-25T07:47:17.170Z,28.00
2017-08-25T07:49:44.738Z,28.20
2017-08-25T07:52:13.307Z,29.00
2017-08-25T07:54:41.104Z,29.80
2017-08-25T07:57:08.728Z,29.80
2017-08-25T07:59:36.273Z,29.50
2017-08-25T08:02:04.039Z,28.60
2017-08-25T08:04:31.954Z,29.00
2017-08-25T08:07:00.081Z,29.30
2017-08-25T08:09:27.699Z,29.00
2017-08-25T08:11:55.422Z,29.40
2017-08-25T08:14:23.219Z,29.60
2017-08-25T08:16:50.813Z,28.70
2017-08-25T08:19:18.315Z,28.70
2017-08-25T08:21:46.019Z,29.00
2017-08-25T08:24:13.566Z,28.80
2017-08-25T08:26:41.324Z,29.00
2017-08-25T08:29:09.011Z,30.00
2017-08-25T08:31:36.723Z,30.30
2017-08-25T08:34:04.527Z,31.00
2017-08-25T08:36:37.890Z,31.40
2017-08-25T08:39:05.404Z,31.60
2017-08-25T08:41:33.445Z,31.50
2017-08-25T08:44:00.988Z,31.80
2017-08-25T08:46:28.547Z,32.00
2017-08-25T08:48:57.114Z,31.70
2017-08-25T08:51:24.913Z,31.40
2017-08-25T08:53:52.512Z,31.00
2017-08-25T08:56:20.331Z,31.70
2017-08-25T08:58:49.070Z,32.90
2017-08-25T09:01:16.889Z,33.40
2017-08-25T09:03:44.711Z,33.70
2017-08-25T09:06:17.970Z,34.00
2017-08-25T09:08:46.153Z,33.50
2017-08-25T09:11:13.687Z,33.50
2017-08-25T09:13:41.595Z,34.10
2017-08-25T09:16:09.370Z,33.20
2017-08-25T09:18:37.475Z,33.20
2017-08-25T09:21:05.119Z,32.40
2017-08-25T09:23:33.102Z,32.80
2017-08-25T09:26:00.899Z,33.10
2017-08-25T09:28:28.432Z,33.70
2017-08-25T09:30:56.243Z,34.10
2017-08-25T09:33:24.532Z,34.20
2017-08-25T09:35:52.075Z,34.20
2017-08-25T09:38:20.015Z,35.00
2017-08-25T09:40:47.599Z,36.40
2017-08-25T09:43:15.150Z,37.00
2017-08-25T09:45:43.291Z,36.80
2017-08-25T09:48:10.799Z,36.70
2017-08-25T09:50:38.310Z,36.70
2017-08-25T09:53:06.092Z,36.70
2017-08-25T09:55:33.591Z,36.70
2017-08-25T09:58:01.091Z,36.80
2017-08-25T10:00:28.885Z,37.10
2017-08-25T10:02:56.402Z,36.80
2017-08-25T10:05:24.202Z,36.20
2017-08-25T10:07:51.771Z,35.50
2017-08-25T10:10:19.259Z,34.80
2017-08-25T10:12:46.763Z,34.40
2017-08-25T10:15:14.366Z,33.70
2017-08-25T10:17:41.871Z,33.50
2017-08-25T10:20:09.366Z,34.30
2017-08-25T10:22:36.906Z,35.00
2017-08-25T10:25:05.398Z,34.80
2017-08-25T10:27:33.142Z,34.90
2017-08-25T10:30:00.820Z,35.40
2017-08-25T10:32:28.692Z,34.70
2017-08-25T10:35:01.830Z,35.30
2017-08-25T10:37:41.210Z,35.60
2017-08-25T10:53:36.720Z,35.10
2017-08-25T10:56:04.210Z,34.80
2017-08-25T10:58:31.747Z,34.90
2017-08-25T11:00:59.755Z,34.80
2017-08-25T11:03:27.298Z,34.40
2017-08-25T11:05:54.834Z,33.80
2017-08-25T11:08:22.432Z,33.30
2017-08-25T11:10:49.944Z,33.30
2017-08-25T11:13:17.471Z,33.20
2017-08-25T11:15:45.066Z,33.80
2017-08-25T11:18:12.712Z,34.30
2017-08-25T11:20:40.491Z,35.00
2017-08-25T11:23:08.486Z,35.20
2017-08-25T11:25:36.258Z,36.20
2017-08-25T11:28:03.775Z,35.90
2017-08-25T11:30:31.459Z,34.80
2017-08-25T11:32:58.990Z,33.90
2017-08-25T11:35:26.487Z,34.10
2017-08-25T11:37:54.078Z,33.90
2017-08-25T11:40:21.796Z,33.60
2017-08-25T11:42:49.402Z,34.30
2017-08-25T11:45:17.537Z,34.20
2017-08-25T11:47:45.010Z,34.90
2017-08-25T11:50:12.515Z,34.80
2017-08-25T11:52:40.035Z,34.50
2017-08-25T11:55:07.734Z,34.80
2017-08-25T11:57:35.239Z,35.40
2017-08-25T12:00:02.803Z,34.90
2017-08-25T12:02:30.700Z,34.60
2017-08-25T12:04:59.635Z,34.70
2017-08-25T12:07:27.155Z,36.00
2017-08-25T12:09:54.779Z,35.80
2017-08-25T12:12:22.815Z,35.30
2017-08-25T12:14:50.728Z,35.40
2017-08-25T12:17:19.283Z,36.80
2017-08-25T12:19:46.843Z,36.90
2017-08-25T12:22:14.354Z,37.00
2017-08-25T12:24:41.671Z,36.90
2017-08-25T12:27:09.574Z,37.60
2017-08-25T12:29:37.395Z,35.20
2017-08-25T12:32:04.975Z,35.80
2017-08-25T12:34:33.103Z,36.30
2017-08-25T12:37:00.818Z,36.10
2017-08-25T12:39:29.091Z,35.80
2017-08-25T12:41:57.603Z,35.30
2017-08-25T12:44:25.099Z,35.50
2017-08-25T12:46:52.664Z,34.70
2017-08-25T12:49:21.731Z,33.80
2017-08-25T12:51:49.598Z,33.60
2017-08-25T12:54:17.109Z,33.00
2017-08-25T12:56:45.630Z,32.60
2017-08-25T12:59:13.130Z,32.50
2017-08-25T13:01:40.690Z,32.60
2017-08-25T13:04:08.435Z,32.70
2017-08-25T13:06:35.936Z,32.30
2017-08-25T13:09:03.438Z,32.80
2017-08-25T13:11:31.280Z,33.00
2017-08-25T13:13:58.827Z,33.90
2017-08-25T13:16:26.328Z,34.90
2017-08-25T13:18:53.855Z,35.90
2017-08-25T13:21:21.515Z,36.10
2017-08-25T13:23:49.038Z,36.10
2017-08-25T13:26:16.712Z,36.10
2017-08-25T13:28:44.226Z,35.50
2017-08-25T13:31:11.766Z,36.40
2017-08-25T13:33:39.571Z,36.00
2017-08-25T13:36:07.083Z,35.50
2017-08-25T13:38:34.599Z,35.40
2017-08-25T13:41:02.497Z,35.30
2017-08-25T13:43:30.011Z,35.70
2017-08-25T13:45:57.519Z,36.40
2017-08-25T13:48:25.314Z,36.90
2017-08-25T13:50:52.820Z,36.70
2017-08-25T13:53:20.842Z,37.20
2017-08-25T13:55:48.386Z,37.40
2017-08-25T13:58:15.886Z,37.80
2017-08-25T14:00:43.391Z,37.80
2017-08-25T14:03:11.293Z,37.90
2017-08-25T14:05:38.795Z,37.60
2017-08-25T14:08:06.307Z,36.30
2017-08-25T14:10:34.118Z,35.70
2017-08-25T14:13:01.617Z,35.40
2017-08-25T14:15:29.130Z,35.50
2017-08-25T14:17:56.752Z,35.30
2017-08-25T14:20:24.268Z,35.50
2017-08-25T14:22:51.767Z,35.60
2017-08-25T14:25:19.314Z,35.70
2017-08-25T14:27:46.818Z,35.50
2017-08-25T14:30:14.324Z,35.20
2017-08-25T14:32:42.859Z,35.30
2017-08-25T14:35:10.362Z,35.80
2017-08-25T14:37:37.875Z,35.60
2017-08-25T14:40:05.441Z,35.30
2017-08-25T14:42:33.365Z,35.30
2017-08-25T14:45:01.302Z,34.60
2017-08-25T14:47:30.238Z,33.40
2017-08-25T14:49:58.007Z,33.30
2017-08-25T14:52:25.738Z,33.00
2017-08-25T14:54:53.307Z,32.60
2017-08-25T14:57:20.810Z,32.10
2017-08-25T14:59:48.323Z,32.10
2017-08-25T15:02:16.145Z,32.30
2017-08-25T15:04:43.658Z,32.30
2017-08-25T15:07:11.159Z,32.50
2017-08-25T15:09:39.339Z,32.70
2017-08-25T15:12:06.848Z,32.90
2017-08-25T15:14:34.373Z,32.80
2017-08-25T15:17:01.947Z,33.10
2017-08-25T15:19:29.458Z,32.80
2017-08-25T15:21:56.966Z,33.10
2017-08-25T15:24:24.892Z,32.80
2017-08-25T15:26:52.418Z,32.90
2017-08-25T15:29:19.919Z,33.00
2017-08-25T15:31:47.492Z,33.00
2017-08-25T15:34:14.992Z,33.40
2017-08-25T15:36:42.960Z,33.40
2017-08-25T15:39:10.515Z,33.20
2017-08-25T15:41:38.021Z,33.50
2017-08-25T15:44:05.525Z,33.70
2017-08-25T15:46:33.108Z,34.00
2017-08-25T15:49:00.609Z,34.30
2017-08-25T15:51:28.110Z,34.30
2017-08-25T15:53:55.900Z,34.50
2017-08-25T15:56:23.412Z,34.90
2017-08-25T15:58:50.928Z,34.20
2017-08-25T16:01:18.455Z,33.60
2017-08-25T16:03:46.372Z,33.30
2017-08-25T16:06:13.890Z,32.90
2017-08-25T16:08:41.836Z,32.20
2017-08-25T16:11:09.374Z,31.70
2017-08-25T16:13:36.889Z,31.70
2017-08-25T16:16:04.682Z,31.70
2017-08-25T16:18:32.187Z,31.50
2017-08-25T16:20:59.694Z,31.50
2017-08-25T16:23:27.305Z,31.30
2017-08-25T16:25:54.816Z,31.30
2017-08-25T16:28:22.316Z,31.30
2017-08-25T16:30:49.893Z,31.50
2017-08-25T16:33:18.177Z,31.50
2017-08-25T16:35:45.691Z,31.50
2017-08-25T16:38:13.513Z,31.50
2017-08-25T16:40:41.029Z,31.50
2017-08-25T16:43:08.537Z,31.40
2017-08-25T16:45:36.338Z,31.50
2017-08-25T16:48:03.854Z,31.50
2017-08-25T16:50:31.409Z,31.50
2017-08-25T16:52:58.967Z,31.50
2017-08-25T16:55:26.475Z,31.50
2017-08-25T16:57:53.981Z,31.40
2017-08-25T17:00:21.547Z,31.30
2017-08-25T17:02:49.060Z,31.10
2017-08-25T17:05:16.567Z,31.10
2017-08-25T17:07:44.132Z,31.00
2017-08-25T17:10:11.642Z,31.10
2017-08-25T17:12:39.415Z,30.90
2017-08-25T17:15:07.990Z,30.60
2017-08-25T17:17:35.500Z,30.60
2017-08-25T17:20:03.034Z,30.40
2017-08-25T17:22:31.015Z,30.10
2017-08-25T17:24:58.537Z,29.90
2017-08-25T17:27:26.804Z,29.70
2017-08-25T17:29:54.393Z,29.60
2017-08-25T17:32:21.903Z,29.50
2017-08-25T17:34:49.408Z,29.40
2017-08-25T17:37:17.335Z,29.40
2017-08-25T17:39:44.850Z,29.20
2017-08-25T17:42:12.369Z,29.40
2017-08-25T17:44:39.943Z,29.30
2017-08-25T17:47:07.456Z,29.20
2017-08-25T17:49:34.960Z,29.10
2017-08-25T17:52:03.539Z,29.00
2017-08-25T17:54:31.076Z,29.00
2017-08-25T17:56:58.583Z,28.80
2017-08-25T17:59:26.116Z,28.70
2017-08-25T18:01:53.630Z,28.50
2017-08-25T18:04:21.211Z,28.40
2017-08-25T18:06:48.714Z,28.30
2017-08-25T18:09:16.331Z,28.20
2017-08-25T18:11:43.895Z,28.10
2017-08-25T18:14:11.532Z,28.00
2017-08-25T18:16:39.062Z,27.90
2017-08-25T18:19:06.627Z,27.80
2017-08-25T18:21:34.141Z,27.70
2017-08-25T18:24:01.657Z,27.60
2017-08-25T18:26:29.519Z,27.40
2017-08-25T18:28:57.787Z,26.90
2017-08-25T18:31:25.292Z,26.90
2017-08-25T18:33:52.856Z,26.70
2017-08-25T18:36:20.375Z,26.60
2017-08-25T18:38:47.883Z,26.60
2017-08-25T18:41:15.454Z,26.50
2017-08-25T18:43:43.730Z,26.20
2017-08-25T18:46:11.242Z,26.10
2017-08-25T18:48:38.791Z,26.00
2017-08-25T18:51:06.306Z,25.80
2017-08-25T18:53:33.807Z,25.60
2017-08-25T18:56:01.375Z,25.50
2017-08-25T18:58:28.887Z,25.40
2017-08-25T19:00:56.395Z,25.30
2017-08-25T19:03:23.951Z,25.30
2017-08-25T19:05:51.460Z,25.10
2017-08-25T19:08:19.728Z,24.80
2017-08-25T19:10:47.298Z,24.70
2017-08-25T19:13:14.817Z,24.70
2017-08-25T19:15:42.364Z,24.50
2017-08-25T19:18:09.946Z,24.50
2017-08-25T19:20:37.446Z,24.30
2017-08-25T19:23:05.723Z,24.20
2017-08-25T19:25:33.550Z,24.20
2017-08-25T19:28:01.073Z,24.10
2017-08-25T19:30:28.578Z,24.00
2017-08-25T19:32:56.164Z,23.90
2017-08-25T19:35:23.687Z,23.90
2017-08-25T19:37:51.199Z,23.90
2017-08-25T19:40:19.080Z,23.90
2017-08-25T19:42:46.583Z,23.80
2017-08-25T19:45:14.096Z,23.80
2017-08-25T19:47:41.915Z,23.70
2017-08-25T19:50:09.447Z,23.50
2017-08-25T19:52:36.959Z,23.50
2017-08-25T19:55:04.523Z,23.40
2017-08-25T19:57:32.052Z,23.50
2017-08-25T19:59:59.567Z,23.30
2017-08-25T20:02:27.462Z,23.20
2017-08-25T20:04:54.971Z,23.10
2017-08-25T20:07:22.491Z,23.00
2017-08-25T20:09:50.062Z,22.90
2017-08-25T20:12:17.580Z,23.00
2017-08-25T20:14:45.097Z,22.80
2017-08-25T20:17:13.038Z,22.80
2017-08-25T20:19:40.571Z,22.80
2017-08-25T20:22:08.081Z,22.80
2017-08-25T20:24:35.639Z,22.90
2017-08-25T20:27:03.161Z,22.80
2017-08-25T20:29:30.666Z,22.60
2017-08-25T20:31:58.226Z,22.60
2017-08-25T20:34:25.731Z,22.60
2017-08-25T20:36:53.236Z,22.60
2017-08-25T20:39:20.775Z,22.50
2017-08-25T20:41:48.302Z,22.50
2017-08-25T20:44:15.844Z,22.40
2017-08-25T20:46:43.374Z,22.20
2017-08-25T20:49:10.888Z,22.10
2017-08-25T20:51:38.475Z,22.10
2017-08-25T20:54:05.994Z,22.00
2017-08-25T20:56:33.520Z,21.90
2017-08-25T20:59:01.167Z,21.80
2017-08-25T21:01:28.675Z,21.90
2017-08-25T21:03:56.191Z,21.90
2017-08-25T21:06:23.741Z,21.80
2017-08-25T21:08:51.256Z,21.70
2017-08-25T21:11:18.779Z,21.70
2017-08-25T21:13:46.340Z,21.70
2017-08-25T21:16:13.849Z,21.70
2017-08-25T21:18:41.355Z,21.60
2017-08-25T21:21:08.919Z,21.50
2017-08-25T21:23:36.431Z,21.40
2017-08-25T21:26:03.931Z,21.40
2017-08-25T21:28:31.506Z,21.50
2017-08-25T21:30:59.024Z,21.60
2017-08-25T21:33:26.526Z,21.70
2017-08-25T21:35:54.066Z,21.90
2017-08-25T21:38:21.580Z,22.00
2017-08-25T21:40:49.092Z,22.10
2017-08-25T21:43:16.658Z,21.90
2017-08-25T21:45:44.170Z,21.80
2017-08-25T21:48:11.682Z,21.70
2017-08-25T21:50:39.252Z,21.50
2017-08-25T21:53:06.779Z,21.40
2017-08-25T21:55:34.293Z,21.30
2017-08-25T21:58:01.849Z,21.30
2017-08-25T22:00:29.351Z,21.30
2017-08-25T22:02:56.869Z,21.30
2017-08-25T22:05:24.428Z,21.20
2017-08-25T22:07:51.936Z,21.10
2017-08-25T22:10:19.452Z,21.00
2017-08-25T22:12:46.985Z,21.00
2017-08-25T22:15:15.254Z,20.90
2017-08-25T22:17:42.758Z,20.90
2017-08-25T22:20:10.331Z,20.90
2017-08-25T22:22:37.827Z,20.90
2017-08-25T22:25:05.344Z,21.00
2017-08-25T22:27:32.901Z,21.00
2017-08-25T22:30:01.171Z,20.90
2017-08-25T22:32:28.670Z,21.00
2017-08-25T22:34:56.464Z,21.10
2017-08-25T22:37:23.972Z,21.10
2017-08-25T22:39:51.487Z,21.00
2017-08-25T22:42:19.395Z,21.00
2017-08-25T22:44:46.898Z,20.90
2017-08-25T22:47:14.396Z,21.00
2017-08-25T22:49:41.963Z,21.10
2017-08-25T22:52:09.496Z,21.00
2017-08-25T22:54:36.998Z,20.80
2017-08-25T22:57:04.799Z,20.70
2017-08-25T22:59:32.312Z,20.50
2017-08-25T23:01:59.816Z,20.50
2017-08-25T23:04:27.379Z,20.40
2017-08-25T23:06:54.932Z,20.40
2017-08-25T23:09:22.444Z,20.40
2017-08-25T23:11:49.996Z,20.30
2017-08-25T23:14:17.499Z,20.20
2017-08-25T23:16:45.007Z,20.00
2017-08-25T23:19:12.803Z,20.00
2017-08-25T23:21:41.071Z,19.80
2017-08-25T23:24:08.572Z,19.80
2017-08-25T23:26:36.531Z,19.80
2017-08-25T23:29:04.039Z,19.80
2017-08-25T23:31:31.577Z,19.70
2017-08-25T23:33:59.427Z,19.80
2017-08-25T23:36:26.931Z,19.60
2017-08-25T23:38:54.464Z,19.60
2017-08-25T23:41:22.029Z,19.60
2017-08-25T23:43:49.535Z,19.70
2017-08-25T23:46:17.039Z,19.70
2017-08-25T23:48:44.821Z,19.70
2017-08-25T23:51:12.318Z,19.70
2017-08-25T23:53:39.862Z,19.70
2017-08-25T23:56:07.671Z,19.60
2017-08-25T23:58:35.175Z,19.40
